Biggs Army Air Field (Fort Bliss) Fort Bliss,El Paso US
ICAO: KBIF
IATA: BIF
Category: Medium
Scheduled Services: No

Elevation: 3946 ft
TransAlt. 18000 ft.

Airport Communications:
EL PASO APP:119.15
EL PASO CLNC DEL:125
EL PASO DEP:121.3
GND:121.6
ANG OPS:49.95
PTD:122.7
TWR:127.9

KBIF Zoom In..

If you have problems with the map follow the link
https://www.worldairports.se/pages/airport.php?
ICAO=KBIF

Runways:

(A) RW 03 length 13554 ft width 150 ft
---- / hdg 32

(B) RW 21 length 13554 ft width 150 ft
---- / hdg 212

Location; KBIF
Day. 05 / Time. 21.58 Zulu
* Altimeter: 30.06
* Temperature: 19° c. 66.2°f.
* Wind from: 290° Speed 12 kn with Gusts up to 17 kn.
Dewpoint: 05° c.
Visibility: 10 Statute Miles.
Clouds: Broken 6000 ft.

KBIF 052158Z AUTO 29012G17KT 10SM BKN060 19/05 A3006 RMK AO2 SLP140 T01920045 $


Wind From 290°
Speed 12 kn.

 
 
jpsmedia worldairports.se 2019   terms of use